sensor_id;sensor_type;location;lat;lon;timestamp;pressure;altitude;pressure_sealevel;temperature;humidity
13952;BME280;39535;52.192;9.886;2022-11-25T00:00:02;100330.47;;;5.94;89.93
13952;BME280;39535;52.192;9.886;2022-11-25T00:02:29;100327.03;;;5.92;89.80
13952;BME280;39535;52.192;9.886;2022-11-25T00:04:55;100322.72;;;5.88;89.03
13952;BME280;39535;52.192;9.886;2022-11-25T00:07:22;100327.91;;;5.91;89.75
13952;BME280;39535;52.192;9.886;2022-11-25T00:09:48;100327.06;;;5.89;89.30
13952;BME280;39535;52.192;9.886;2022-11-25T00:12:15;100330.50;;;5.88;88.92
13952;BME280;39535;52.192;9.886;2022-11-25T00:14:41;100322.72;;;5.86;89.43
13952;BME280;39535;52.192;9.886;2022-11-25T00:17:09;100315.81;;;5.93;89.83
13952;BME280;39535;52.192;9.886;2022-11-25T00:19:35;100320.13;;;5.89;89.48
13952;BME280;39535;52.192;9.886;2022-11-25T00:22:02;100315.84;;;5.87;90.08
13952;BME280;39535;52.192;9.886;2022-11-25T00:24:28;100314.97;;;5.85;89.13
13952;BME280;39535;52.192;9.886;2022-11-25T00:26:54;100328.75;;;5.81;89.36
13952;BME280;39535;52.192;9.886;2022-11-25T00:29:21;100338.28;;;5.75;89.09
13952;BME280;39535;52.192;9.886;2022-11-25T00:31:47;100321.03;;;5.70;89.15
13952;BME280;39535;52.192;9.886;2022-11-25T00:34:15;100309.81;;;5.63;88.94
13952;BME280;39535;52.192;9.886;2022-11-25T00:36:41;100319.28;;;5.64;89.32
13952;BME280;39535;52.192;9.886;2022-11-25T00:39:10;100308.91;;;5.69;89.62
13952;BME280;39535;52.192;9.886;2022-11-25T00:41:38;100296.00;;;5.58;90.11
13952;BME280;39535;52.192;9.886;2022-11-25T00:44:22;100288.25;;;5.52;90.56
13952;BME280;39535;52.192;9.886;2022-11-25T00:47:01;100239.94;;;5.43;91.14
13952;BME280;39535;52.192;9.886;2022-11-25T00:49:30;100226.13;;;5.44;91.77
13952;BME280;39535;52.192;9.886;2022-11-25T00:51:57;100219.22;;;5.46;91.31
13952;BME280;39535;52.192;9.886;2022-11-25T00:54:24;100219.19;;;5.51;91.69
13952;BME280;39535;52.192;9.886;2022-11-25T00:56:51;100233.88;;;5.55;91.23
13952;BME280;39535;52.192;9.886;2022-11-25T00:59:17;100231.28;;;5.60;91.37
13952;BME280;39535;52.192;9.886;2022-11-25T01:01:44;100246.81;;;5.58;90.92
13952;BME280;39535;52.192;9.886;2022-11-25T01:04:10;100248.53;;;5.54;90.80
13952;BME280;39535;52.192;9.886;2022-11-25T01:06:38;100253.72;;;5.50;90.24
13952;BME280;39535;52.192;9.886;2022-11-25T01:09:05;100259.75;;;5.49;90.85
13952;BME280;39535;52.192;9.886;2022-11-25T01:11:32;100259.78;;;5.47;90.95
13952;BME280;39535;52.192;9.886;2022-11-25T01:13:59;100245.97;;;5.41;91.36
13952;BME280;39535;52.192;9.886;2022-11-25T01:16:26;100236.50;;;5.41;92.33
13952;BME280;39535;52.192;9.886;2022-11-25T01:18:52;100238.22;;;5.45;91.96
13952;BME280;39535;52.192;9.886;2022-11-25T01:21:20;100201.09;;;5.42;92.40
13952;BME280;39535;52.192;9.886;2022-11-25T01:23:49;100193.31;;;5.45;92.65
13952;BME280;39535;52.192;9.886;2022-11-25T01:26:17;100188.16;;;5.48;93.24
13952;BME280;39535;52.192;9.886;2022-11-25T01:28:44;100184.69;;;5.53;92.58
13952;BME280;39535;52.192;9.886;2022-11-25T01:31:13;100174.28;;;5.63;93.79
13952;BME280;39535;52.192;9.886;2022-11-25T01:33:40;100164.78;;;5.71;93.21
13952;BME280;39535;52.192;9.886;2022-11-25T01:36:09;100189.78;;;5.76;92.70
13952;BME280;39535;52.192;9.886;2022-11-25T01:38:36;100197.56;;;5.76;92.96
13952;BME280;39535;52.192;9.886;2022-11-25T01:41:05;100205.31;;;5.80;92.07
13952;BME280;39535;52.192;9.886;2022-11-25T01:43:32;100212.22;;;5.84;91.63
13952;BME280;39535;52.192;9.886;2022-11-25T01:46:04;100240.72;;;5.74;90.99
13952;BME280;39535;52.192;9.886;2022-11-25T01:48:37;100243.34;;;5.54;91.47
13952;BME280;39535;52.192;9.886;2022-11-25T01:51:08;100240.78;;;5.50;92.10
13952;BME280;39535;52.192;9.886;2022-11-25T01:53:39;100228.72;;;5.44;92.12
13952;BME280;39535;52.192;9.886;2022-11-25T01:56:07;100218.34;;;5.52;91.96
13952;BME280;39535;52.192;9.886;2022-11-25T01:58:34;100209.69;;;5.53;92.63
13952;BME280;39535;52.192;9.886;2022-11-25T02:01:03;100214.91;;;5.44;92.96
13952;BME280;39535;52.192;9.886;2022-11-25T02:03:33;100188.16;;;5.38;93.73
13952;BME280;39535;52.192;9.886;2022-11-25T02:06:05;100161.44;;;5.40;93.71
13952;BME280;39535;52.192;9.886;2022-11-25T02:08:35;100148.47;;;5.38;94.38
13952;BME280;39535;52.192;9.886;2022-11-25T02:11:02;100126.91;;;5.45;95.01
13952;BME280;39535;52.192;9.886;2022-11-25T02:13:31;100126.03;;;5.48;95.34
13952;BME280;39535;52.192;9.886;2022-11-25T02:15:58;100126.84;;;5.54;94.87
13952;BME280;39535;52.192;9.886;2022-11-25T02:18:25;100141.50;;;5.69;94.66
13952;BME280;39535;52.192;9.886;2022-11-25T02:20:52;100151.78;;;5.78;94.09
13952;BME280;39535;52.192;9.886;2022-11-25T02:23:27;100152.69;;;5.77;94.02
13952;BME280;39535;52.192;9.886;2022-11-25T02:25:59;100163.03;;;5.77;93.53
13952;BME280;39535;52.192;9.886;2022-11-25T02:28:28;100161.28;;;5.81;92.98
13952;BME280;39535;52.192;9.886;2022-11-25T02:30:55;100161.31;;;5.75;93.10
13952;BME280;39535;52.192;9.886;2022-11-25T02:33:22;100172.50;;;5.78;93.67
13952;BME280;39535;52.192;9.886;2022-11-25T02:35:53;100175.94;;;5.81;92.73
13952;BME280;39535;52.192;9.886;2022-11-25T02:38:23;100169.03;;;5.83;93.02
13952;BME280;39535;52.192;9.886;2022-11-25T02:40:54;100182.00;;;5.78;93.39
13952;BME280;39535;52.192;9.886;2022-11-25T02:43:25;100195.84;;;5.72;92.62
13952;BME280;39535;52.192;9.886;2022-11-25T02:45:56;100172.56;;;5.71;93.48
13952;BME280;39535;52.192;9.886;2022-11-25T02:48:23;100174.28;;;5.72;93.15
13952;BME280;39535;52.192;9.886;2022-11-25T02:50:51;100172.53;;;5.75;92.64
13952;BME280;39535;52.192;9.886;2022-11-25T02:53:18;100176.00;;;5.68;92.73
13952;BME280;39535;52.192;9.886;2022-11-25T02:55:45;100175.16;;;5.66;93.26
13952;BME280;39535;52.192;9.886;2022-11-25T02:58:12;100179.44;;;5.73;92.99
13952;BME280;39535;52.192;9.886;2022-11-25T03:00:40;100178.63;;;5.65;92.41
13952;BME280;39535;52.192;9.886;2022-11-25T03:03:07;100169.94;;;5.72;92.74
13952;BME280;39535;52.192;9.886;2022-11-25T03:05:34;100168.25;;;5.73;93.26
13952;BME280;39535;52.192;9.886;2022-11-25T03:08:00;100178.59;;;5.71;92.61
13952;BME280;39535;52.192;9.886;2022-11-25T03:10:27;100188.09;;;5.69;92.50
13952;BME280;39535;52.192;9.886;2022-11-25T03:12:53;100197.56;;;5.70;92.34
13952;BME280;39535;52.192;9.886;2022-11-25T03:15:20;100217.47;;;5.65;91.53
13952;BME280;39535;52.192;9.886;2022-11-25T03:17:48;100215.75;;;5.61;92.04
13952;BME280;39535;52.192;9.886;2022-11-25T03:20:15;100178.63;;;5.59;93.72
13952;BME280;39535;52.192;9.886;2022-11-25T03:22:41;100170.84;;;5.61;93.07
13952;BME280;39535;52.192;9.886;2022-11-25T03:25:09;100159.63;;;5.62;94.19
13952;BME280;39535;52.192;9.886;2022-11-25T03:27:36;100151.84;;;5.69;94.33
13952;BME280;39535;52.192;9.886;2022-11-25T03:30:05;100138.88;;;5.77;93.94
13952;BME280;39535;52.192;9.886;2022-11-25T03:32:32;100144.91;;;5.79;94.00
13952;BME280;39535;52.192;9.886;2022-11-25T03:35:00;100146.59;;;5.80;93.84
13952;BME280;39535;52.192;9.886;2022-11-25T03:37:26;100142.31;;;5.79;93.74
13952;BME280;39535;52.192;9.886;2022-11-25T03:39:53;100138.00;;;5.69;94.19
13952;BME280;39535;52.192;9.886;2022-11-25T03:42:19;100140.56;;;5.80;94.15
13952;BME280;39535;52.192;9.886;2022-11-25T03:44:45;100140.59;;;5.70;93.88
13952;BME280;39535;52.192;9.886;2022-11-25T03:47:12;100137.13;;;5.74;94.72
13952;BME280;39535;52.192;9.886;2022-11-25T03:49:38;100145.75;;;5.78;93.98
13952;BME280;39535;52.192;9.886;2022-11-25T03:52:06;100144.88;;;5.84;94.15
13952;BME280;39535;52.192;9.886;2022-11-25T03:54:33;100144.88;;;5.82;93.79
13952;BME280;39535;52.192;9.886;2022-11-25T03:56:59;100149.19;;;5.85;93.76
13952;BME280;39535;52.192;9.886;2022-11-25T03:59:25;100153.50;;;5.89;93.02
13952;BME280;39535;52.192;9.886;2022-11-25T04:01:52;100162.13;;;5.91;92.79
13952;BME280;39535;52.192;9.886;2022-11-25T04:04:18;100172.47;;;6.00;92.28
13952;BME280;39535;52.192;9.886;2022-11-25T04:06:45;100179.38;;;6.00;91.90
13952;BME280;39535;52.192;9.886;2022-11-25T04:09:12;100187.97;;;6.08;91.51
13952;BME280;39535;52.192;9.886;2022-11-25T04:11:39;100199.22;;;6.04;91.46
13952;BME280;39535;52.192;9.886;2022-11-25T04:14:23;100205.25;;;6.06;91.60
13952;BME280;39535;52.192;9.886;2022-11-25T04:16:50;100212.19;;;6.01;91.43
13952;BME280;39535;52.192;9.886;2022-11-25T04:19:16;100214.78;;;6.07;91.72
13952;BME280;39535;52.192;9.886;2022-11-25T04:21:43;100225.09;;;6.13;91.68
13952;BME280;39535;52.192;9.886;2022-11-25T04:24:09;100231.97;;;6.20;91.15
13952;BME280;39535;52.192;9.886;2022-11-25T04:26:37;100241.50;;;6.12;92.14
13952;BME280;39535;52.192;9.886;2022-11-25T04:29:04;100229.41;;;6.17;91.99
13952;BME280;39535;52.192;9.886;2022-11-25T04:31:30;100233.66;;;6.29;91.28
13952;BME280;39535;52.192;9.886;2022-11-25T04:33:57;100256.16;;;6.24;90.16
13952;BME280;39535;52.192;9.886;2022-11-25T04:36:23;100259.66;;;6.13;90.66
13952;BME280;39535;52.192;9.886;2022-11-25T04:38:50;100241.50;;;6.10;91.79
13952;BME280;39535;52.192;9.886;2022-11-25T04:41:16;100241.50;;;6.10;91.76
13952;BME280;39535;52.192;9.886;2022-11-25T04:43:44;100239.78;;;6.14;91.03
13952;BME280;39535;52.192;9.886;2022-11-25T04:46:13;100238.91;;;6.15;90.45
13952;BME280;39535;52.192;9.886;2022-11-25T04:48:41;100262.25;;;6.15;90.14
13952;BME280;39535;52.192;9.886;2022-11-25T04:51:07;100265.72;;;6.08;90.00
13952;BME280;39535;52.192;9.886;2022-11-25T04:53:34;100263.16;;;6.05;90.33
13952;BME280;39535;52.192;9.886;2022-11-25T04:56:00;100264.00;;;6.02;90.29
13952;BME280;39535;52.192;9.886;2022-11-25T04:58:27;100254.50;;;5.93;90.69
13952;BME280;39535;52.192;9.886;2022-11-25T05:01:12;100241.53;;;5.92;90.96
13952;BME280;39535;52.192;9.886;2022-11-25T05:03:38;100245.00;;;5.89;91.44
13952;BME280;39535;52.192;9.886;2022-11-25T05:06:06;100233.78;;;5.92;90.77
13952;BME280;39535;52.192;9.886;2022-11-25T05:08:32;100236.38;;;5.96;90.96
13952;BME280;39535;52.192;9.886;2022-11-25T05:10:59;100232.91;;;5.91;91.24
13952;BME280;39535;52.192;9.886;2022-11-25T05:13:25;100229.47;;;6.00;90.73
13952;BME280;39535;52.192;9.886;2022-11-25T05:15:52;100215.66;;;5.98;91.17
13952;BME280;39535;52.192;9.886;2022-11-25T05:18:20;100217.34;;;6.04;91.40
13952;BME280;39535;52.192;9.886;2022-11-25T05:20:46;100202.69;;;6.03;91.75
13952;BME280;39535;52.192;9.886;2022-11-25T05:23:13;100206.13;;;6.00;92.02
13952;BME280;39535;52.192;9.886;2022-11-25T05:25:39;100208.72;;;6.05;90.83
13952;BME280;39535;52.192;9.886;2022-11-25T05:28:06;100216.47;;;6.06;91.04
13952;BME280;39535;52.192;9.886;2022-11-25T05:30:32;100232.88;;;6.08;91.41
13952;BME280;39535;52.192;9.886;2022-11-25T05:32:59;100232.06;;;5.95;91.47
13952;BME280;39535;52.192;9.886;2022-11-25T05:35:26;100203.53;;;6.03;92.01
13952;BME280;39535;52.192;9.886;2022-11-25T05:37:53;100187.16;;;5.84;92.58
13952;BME280;39535;52.192;9.886;2022-11-25T05:40:19;100171.59;;;6.00;93.28
13952;BME280;39535;52.192;9.886;2022-11-25T05:42:45;100172.47;;;6.02;92.60
13952;BME280;39535;52.192;9.886;2022-11-25T05:45:12;100171.56;;;6.06;92.46
13952;BME280;39535;52.192;9.886;2022-11-25T05:47:38;100171.53;;;6.10;92.58
13952;BME280;39535;52.192;9.886;2022-11-25T05:50:06;100175.84;;;6.16;91.77
13952;BME280;39535;52.192;9.886;2022-11-25T05:52:34;100180.19;;;6.09;92.82
13952;BME280;39535;52.192;9.886;2022-11-25T05:55:00;100166.38;;;6.09;93.20
13952;BME280;39535;52.192;9.886;2022-11-25T05:57:27;100149.94;;;6.13;93.13
13952;BME280;39535;52.192;9.886;2022-11-25T05:59:53;100154.19;;;6.26;92.53
13952;BME280;39535;52.192;9.886;2022-11-25T06:02:20;100162.84;;;6.24;92.41
13952;BME280;39535;52.192;9.886;2022-11-25T06:04:46;100172.34;;;6.23;91.86
13952;BME280;39535;52.192;9.886;2022-11-25T06:07:14;100184.50;;;6.15;92.61
13952;BME280;39535;52.192;9.886;2022-11-25T06:09:41;100169.75;;;6.22;93.28
13952;BME280;39535;52.192;9.886;2022-11-25T06:12:08;100156.75;;;6.32;93.61
13952;BME280;39535;52.192;9.886;2022-11-25T06:14:34;100165.34;;;6.39;92.39
13952;BME280;39535;52.192;9.886;2022-11-25T06:17:01;100180.00;;;6.45;91.94
13952;BME280;39535;52.192;9.886;2022-11-25T06:19:28;100206.75;;;6.50;91.61
13952;BME280;39535;52.192;9.886;2022-11-25T06:21:55;100212.75;;;6.60;91.42
13952;BME280;39535;52.192;9.886;2022-11-25T06:24:21;100217.88;;;6.67;90.63
13952;BME280;39535;52.192;9.886;2022-11-25T06:26:49;100236.97;;;6.59;91.06
13952;BME280;39535;52.192;9.886;2022-11-25T06:29:16;100229.19;;;6.59;91.35
13952;BME280;39535;52.192;9.886;2022-11-25T06:31:42;100227.44;;;6.57;91.29
13952;BME280;39535;52.192;9.886;2022-11-25T06:34:08;100214.44;;;6.64;91.01
13952;BME280;39535;52.192;9.886;2022-11-25T06:36:35;100218.78;;;6.62;91.12
13952;BME280;39535;52.192;9.886;2022-11-25T06:39:01;100223.97;;;6.65;91.17
13952;BME280;39535;52.192;9.886;2022-11-25T06:41:28;100216.97;;;6.73;91.32
13952;BME280;39535;52.192;9.886;2022-11-25T06:43:55;100214.38;;;6.74;92.00
13952;BME280;39535;52.192;9.886;2022-11-25T06:46:22;100214.41;;;6.71;91.23
13952;BME280;39535;52.192;9.886;2022-11-25T06:48:48;100211.78;;;6.76;91.73
13952;BME280;39535;52.192;9.886;2022-11-25T06:51:15;100211.75;;;6.79;92.07
13952;BME280;39535;52.192;9.886;2022-11-25T06:53:42;100209.16;;;6.79;91.22
13952;BME280;39535;52.192;9.886;2022-11-25T06:56:11;100213.44;;;6.82;91.08
13952;BME280;39535;52.192;9.886;2022-11-25T06:58:39;100228.97;;;6.92;90.95
13952;BME280;39535;52.192;9.886;2022-11-25T07:01:12;100238.47;;;6.92;90.68
13952;BME280;39535;52.192;9.886;2022-11-25T07:03:39;100220.22;;;7.01;91.19
13952;BME280;39535;52.192;9.886;2022-11-25T07:06:06;100224.56;;;6.99;91.40
13952;BME280;39535;52.192;9.886;2022-11-25T07:08:32;100239.25;;;7.05;91.05
13952;BME280;39535;52.192;9.886;2022-11-25T07:11:02;100232.34;;;7.02;91.28
13952;BME280;39535;52.192;9.886;2022-11-25T07:13:29;100237.47;;;7.10;91.83
13952;BME280;39535;52.192;9.886;2022-11-25T07:15:55;100235.72;;;7.12;90.83
13952;BME280;39535;52.192;9.886;2022-11-25T07:18:28;100236.53;;;7.20;90.42
13952;BME280;39535;52.192;9.886;2022-11-25T07:20:54;100239.13;;;7.20;91.18
13952;BME280;39535;52.192;9.886;2022-11-25T07:23:21;100243.47;;;7.13;91.63
13952;BME280;39535;52.192;9.886;2022-11-25T07:25:47;100259.06;;;7.15;91.47
13952;BME280;39535;52.192;9.886;2022-11-25T07:28:13;100252.94;;;7.22;91.52
13952;BME280;39535;52.192;9.886;2022-11-25T07:30:40;100259.91;;;7.17;91.33
13952;BME280;39535;52.192;9.886;2022-11-25T07:33:07;100271.13;;;7.19;90.99
13952;BME280;39535;52.192;9.886;2022-11-25T07:35:34;100272.88;;;7.17;91.34
13952;BME280;39535;52.192;9.886;2022-11-25T07:38:01;100262.38;;;7.32;91.31
13952;BME280;39535;52.192;9.886;2022-11-25T07:40:27;100274.50;;;7.32;91.65
13952;BME280;39535;52.192;9.886;2022-11-25T07:42:54;100274.47;;;7.36;91.87
13952;BME280;39535;52.192;9.886;2022-11-25T07:45:20;100268.47;;;7.27;92.39
13952;BME280;39535;52.192;9.886;2022-11-25T07:47:48;100240.81;;;7.24;93.38
13952;BME280;39535;52.192;9.886;2022-11-25T07:50:15;100236.47;;;7.28;94.18
13952;BME280;39535;52.192;9.886;2022-11-25T07:52:42;100195.84;;;7.19;95.83
13952;BME280;39535;52.192;9.886;2022-11-25T07:55:09;100167.28;;;7.24;96.13
13952;BME280;39535;52.192;9.886;2022-11-25T07:57:35;100157.69;;;7.29;95.88
13952;BME280;39535;52.192;9.886;2022-11-25T08:00:03;100147.31;;;7.29;97.08
13952;BME280;39535;52.192;9.886;2022-11-25T08:02:30;100140.50;;;7.19;97.46
13952;BME280;39535;52.192;9.886;2022-11-25T08:04:56;100120.56;;;7.21;97.78
13952;BME280;39535;52.192;9.886;2022-11-25T08:07:23;100120.56;;;7.24;97.80
13952;BME280;39535;52.192;9.886;2022-11-25T08:09:50;100125.63;;;7.33;97.72
13952;BME280;39535;52.192;9.886;2022-11-25T08:12:17;100127.28;;;7.42;97.73
13952;BME280;39535;52.192;9.886;2022-11-25T08:14:43;100131.50;;;7.49;97.29
13952;BME280;39535;52.192;9.886;2022-11-25T08:17:10;100141.03;;;7.50;97.29
13952;BME280;39535;52.192;9.886;2022-11-25T08:19:36;100144.47;;;7.50;97.83
13952;BME280;39535;52.192;9.886;2022-11-25T08:22:04;100150.59;;;7.46;97.30
13952;BME280;39535;52.192;9.886;2022-11-25T08:24:31;100155.84;;;7.40;96.95
13952;BME280;39535;52.192;9.886;2022-11-25T08:26:59;100143.78;;;7.34;97.72
13952;BME280;39535;52.192;9.886;2022-11-25T08:29:26;100146.31;;;7.44;97.54
13952;BME280;39535;52.192;9.886;2022-11-25T08:31:52;100152.28;;;7.49;97.66
13952;BME280;39535;52.192;9.886;2022-11-25T08:34:21;100158.31;;;7.52;98.01
13952;BME280;39535;52.192;9.886;2022-11-25T08:36:48;100159.16;;;7.54;98.00
13952;BME280;39535;52.192;9.886;2022-11-25T08:39:15;100172.28;;;7.44;97.04
13952;BME280;39535;52.192;9.886;2022-11-25T08:41:42;100173.88;;;7.54;96.71
13952;BME280;39535;52.192;9.886;2022-11-25T08:44:10;100172.91;;;7.63;96.65
13952;BME280;39535;52.192;9.886;2022-11-25T08:46:37;100182.38;;;7.68;96.78
13952;BME280;39535;52.192;9.886;2022-11-25T08:49:05;100188.41;;;7.69;96.10
13952;BME280;39535;52.192;9.886;2022-11-25T08:51:34;100215.28;;;7.68;95.44
13952;BME280;39535;52.192;9.886;2022-11-25T08:54:01;100225.63;;;7.71;95.25
13952;BME280;39535;52.192;9.886;2022-11-25T08:56:28;100270.75;;;7.65;94.61
13952;BME280;39535;52.192;9.886;2022-11-25T08:58:55;100266.34;;;7.69;94.56
13952;BME280;39535;52.192;9.886;2022-11-25T09:01:26;100270.63;;;7.79;94.46
13952;BME280;39535;52.192;9.886;2022-11-25T09:03:54;100281.03;;;7.73;94.39
13952;BME280;39535;52.192;9.886;2022-11-25T09:06:21;100279.28;;;7.78;93.49
13952;BME280;39535;52.192;9.886;2022-11-25T09:08:49;100294.84;;;7.80;93.36
13952;BME280;39535;52.192;9.886;2022-11-25T09:11:15;100308.63;;;7.89;93.13
13952;BME280;39535;52.192;9.886;2022-11-25T09:13:42;100315.50;;;7.93;93.49
13952;BME280;39535;52.192;9.886;2022-11-25T09:16:08;100318.88;;;8.00;93.10
13952;BME280;39535;52.192;9.886;2022-11-25T09:18:36;100327.53;;;8.02;92.95
13952;BME280;39535;52.192;9.886;2022-11-25T09:21:07;100331.81;;;8.06;92.66
13952;BME280;39535;52.192;9.886;2022-11-25T09:23:35;100345.66;;;8.08;92.72
13952;BME280;39535;52.192;9.886;2022-11-25T09:26:03;100350.00;;;8.11;92.15
13952;BME280;39535;52.192;9.886;2022-11-25T09:28:29;100355.25;;;8.05;92.03
13952;BME280;39535;52.192;9.886;2022-11-25T09:30:56;100361.34;;;8.01;92.19
13952;BME280;39535;52.192;9.886;2022-11-25T09:33:22;100382.19;;;7.98;91.51
13952;BME280;39535;52.192;9.886;2022-11-25T09:35:50;100387.38;;;7.98;90.98
13952;BME280;39535;52.192;9.886;2022-11-25T09:38:16;100403.03;;;7.90;90.87
13952;BME280;39535;52.192;9.886;2022-11-25T09:40:49;100393.53;;;7.89;91.20
13952;BME280;39535;52.192;9.886;2022-11-25T09:43:28;100392.56;;;7.99;91.59
13952;BME280;39535;52.192;9.886;2022-11-25T09:46:29;100403.09;;;7.82;91.33
13952;BME280;39535;52.192;9.886;2022-11-25T09:49:23;100408.34;;;7.76;91.20
13952;BME280;39535;52.192;9.886;2022-11-25T09:52:01;100387.50;;;7.82;92.09
13952;BME280;39535;52.192;9.886;2022-11-25T09:54:34;100377.06;;;7.87;92.15
13952;BME280;39535;52.192;9.886;2022-11-25T09:57:14;100381.34;;;7.94;91.74
13952;BME280;39535;52.192;9.886;2022-11-25T09:59:48;100389.06;;;7.99;91.47
13952;BME280;39535;52.192;9.886;2022-11-25T10:02:23;100389.06;;;8.00;91.92
13952;BME280;39535;52.192;9.886;2022-11-25T10:04:55;100390.81;;;8.03;91.47
13952;BME280;39535;52.192;9.886;2022-11-25T10:07:29;100408.09;;;8.04;91.00
13952;BME280;39535;52.192;9.886;2022-11-25T10:10:00;100394.25;;;8.02;91.36
13952;BME280;39535;52.192;9.886;2022-11-25T10:12:30;100400.31;;;8.05;91.98
13952;BME280;39535;52.192;9.886;2022-11-25T10:15:00;100405.50;;;8.05;91.59
13952;BME280;39535;52.192;9.886;2022-11-25T10:17:33;100413.38;;;7.94;90.65
13952;BME280;39535;52.192;9.886;2022-11-25T10:20:04;100413.31;;;8.04;91.28
13952;BME280;39535;52.192;9.886;2022-11-25T10:22:36;100397.56;;;8.18;91.68
13952;BME280;39535;52.192;9.886;2022-11-25T10:25:12;100380.22;;;8.20;92.18
13952;BME280;39535;52.192;9.886;2022-11-25T10:27:43;100368.91;;;8.27;92.49
13952;BME280;39535;52.192;9.886;2022-11-25T10:30:16;100354.97;;;8.31;93.04
13952;BME280;39535;52.192;9.886;2022-11-25T10:32:48;100356.66;;;8.35;92.79
13952;BME280;39535;52.192;9.886;2022-11-25T10:35:24;100380.09;;;8.32;91.91
13952;BME280;39535;52.192;9.886;2022-11-25T10:37:55;100394.84;;;8.31;91.28
13952;BME280;39535;52.192;9.886;2022-11-25T10:40:23;100439.28;;;8.07;90.54
13952;BME280;39535;52.192;9.886;2022-11-25T10:42:50;100436.59;;;8.16;90.60
13952;BME280;39535;52.192;9.886;2022-11-25T10:45:19;100453.09;;;8.13;90.26
13952;BME280;39535;52.192;9.886;2022-11-25T10:48:06;100456.53;;;8.17;91.00
13952;BME280;39535;52.192;9.886;2022-11-25T10:50:39;100452.97;;;8.24;90.36
13952;BME280;39535;52.192;9.886;2022-11-25T10:53:15;100444.31;;;8.25;90.19
13952;BME280;39535;52.192;9.886;2022-11-25T10:55:56;100445.09;;;8.33;90.62
13952;BME280;39535;52.192;9.886;2022-11-25T10:58:28;100422.53;;;8.37;91.21
13952;BME280;39535;52.192;9.886;2022-11-25T11:01:14;100404.34;;;8.35;92.40
13952;BME280;39535;52.192;9.886;2022-11-25T11:03:43;100386.19;;;8.29;92.74
13952;BME280;39535;52.192;9.886;2022-11-25T11:06:29;100377.53;;;8.29;92.92
13952;BME280;39535;52.192;9.886;2022-11-25T11:08:57;100361.91;;;8.30;93.13
13952;BME280;39535;52.192;9.886;2022-11-25T11:11:24;100371.44;;;8.33;92.70
13952;BME280;39535;52.192;9.886;2022-11-25T11:13:57;100396.53;;;8.35;91.42
13952;BME280;39535;52.192;9.886;2022-11-25T11:16:27;100413.19;;;8.18;91.46
13952;BME280;39535;52.192;9.886;2022-11-25T11:18:54;100418.38;;;8.16;91.96
13952;BME280;39535;52.192;9.886;2022-11-25T11:21:23;100403.56;;;8.27;91.63
13952;BME280;39535;52.192;9.886;2022-11-25T11:23:52;100421.81;;;8.21;91.68
13952;BME280;39535;52.192;9.886;2022-11-25T11:26:23;100407.06;;;8.20;92.17
13952;BME280;39535;52.192;9.886;2022-11-25T11:28:58;100389.84;;;8.10;92.50
13952;BME280;39535;52.192;9.886;2022-11-25T11:31:26;100380.25;;;8.16;93.12
13952;BME280;39535;52.192;9.886;2022-11-25T11:33:57;100368.84;;;8.28;93.40
13952;BME280;39535;52.192;9.886;2022-11-25T11:36:37;100356.69;;;8.32;93.14
13952;BME280;39535;52.192;9.886;2022-11-25T11:39:20;100352.38;;;8.31;93.23
13952;BME280;39535;52.192;9.886;2022-11-25T11:41:56;100337.78;;;8.19;94.08
13952;BME280;39535;52.192;9.886;2022-11-25T11:44:34;100319.72;;;8.07;94.91
13952;BME280;39535;52.192;9.886;2022-11-25T11:47:17;100298.94;;;8.01;95.90
13952;BME280;39535;52.192;9.886;2022-11-25T11:50:07;100283.28;;;8.08;95.98
13952;BME280;39535;52.192;9.886;2022-11-25T11:52:46;100287.59;;;8.11;95.84
13952;BME280;39535;52.192;9.886;2022-11-25T11:55:33;100291.81;;;8.21;95.46
13952;BME280;39535;52.192;9.886;2022-11-25T11:58:12;100309.25;;;8.13;95.56
13952;BME280;39535;52.192;9.886;2022-11-25T12:00:44;100309.31;;;8.04;95.36
13952;BME280;39535;52.192;9.886;2022-11-25T12:03:17;100308.31;;;8.19;95.62
13952;BME280;39535;52.192;9.886;2022-11-25T12:05:48;100325.53;;;8.27;95.08
13952;BME280;39535;52.192;9.886;2022-11-25T12:08:24;100328.38;;;8.06;95.22
13952;BME280;39535;52.192;9.886;2022-11-25T12:11:11;100307.56;;;8.06;96.40
13952;BME280;39535;52.192;9.886;2022-11-25T12:13:48;100288.38;;;8.16;96.29
13952;BME280;39535;52.192;9.886;2022-11-25T12:16:20;100289.97;;;8.28;96.21
13952;BME280;39535;52.192;9.886;2022-11-25T12:19:01;100304.69;;;8.30;96.03
13952;BME280;39535;52.192;9.886;2022-11-25T12:21:36;100292.66;;;8.22;96.49
13952;BME280;39535;52.192;9.886;2022-11-25T12:24:10;100296.03;;;8.28;96.51
13952;BME280;39535;52.192;9.886;2022-11-25T12:26:45;100293.31;;;8.39;96.92
13952;BME280;39535;52.192;9.886;2022-11-25T12:29:19;100292.41;;;8.46;96.56
13952;BME280;39535;52.192;9.886;2022-11-25T12:31:52;100287.16;;;8.49;97.28
13952;BME280;39535;52.192;9.886;2022-11-25T12:34:41;100287.06;;;8.57;97.01
13952;BME280;39535;52.192;9.886;2022-11-25T12:37:19;100290.59;;;8.51;96.90
13952;BME280;39535;52.192;9.886;2022-11-25T12:39:56;100282.88;;;8.47;97.70
13952;BME280;39535;52.192;9.886;2022-11-25T12:42:27;100281.94;;;8.49;97.46
13952;BME280;39535;52.192;9.886;2022-11-25T12:45:02;100285.53;;;8.39;97.39
13952;BME280;39535;52.192;9.886;2022-11-25T12:47:30;100280.34;;;8.38;97.77
13952;BME280;39535;52.192;9.886;2022-11-25T12:49:57;100270.78;;;8.43;98.12
13952;BME280;39535;52.192;9.886;2022-11-25T12:52:42;100263.66;;;8.55;98.81
13952;BME280;39535;52.192;9.886;2022-11-25T12:55:14;100270.44;;;8.67;98.87
13952;BME280;39535;52.192;9.886;2022-11-25T13:01:20;100301.84;;;8.53;97.15
13952;BME280;39535;52.192;9.886;2022-11-25T13:10:17;100333.88;;;8.59;96.74
13952;BME280;39535;52.192;9.886;2022-11-25T13:12:54;100339.78;;;8.70;96.02
13952;BME280;39535;52.192;9.886;2022-11-25T13:15:25;100350.34;;;8.58;95.88
13952;BME280;39535;52.192;9.886;2022-11-25T13:17:58;100354.63;;;8.62;95.82
13952;BME280;39535;52.192;9.886;2022-11-25T13:20:41;100364.38;;;8.46;96.32